JeSS Newton — WDA2941 — position and weather

sailwx.info

Track history (hours):
 
Tides and Currents Weather Stations Pressure Air Temp Water Temp Dewpoint Dewpoint Depression Visibility Wind Speed Wind Dir Waves Ship Positions

JeSS Newton

Owner: G & H Towing Company, Galveston, TX. More information available from US FCC via Universal Licensing System and Coast Guard Vessel Documentation Center.

Last reported at 2018-Feb-20 07:17 UTC. Time now 2018-Feb-20 08:11 UTC.
Position N 29°19' W 094°47'.

Length 30 m; draft 5 m.

Type: Tug. MMSI: 366792940.

Date/timePositionNaut miles runAvg speedWind from/ knotsBaromVisibWave heightAir tempDewpointWater temp
2018-Feb-20 07:17N 29°19' W 094°47'0 0.0
2018-Feb-20 06:59N 29°19' W 094°47'1 0.1
2018-Feb-19 17:56N 29°20' W 094°47'4 8.6
2018-Feb-19 17:30N 29°22' W 094°50'3 6.1
2018-Feb-19 17:00N 29°22' W 094°53'2 2.4
2018-Feb-19 16:10N 29°22' W 094°51'3 7.1
2018-Feb-19 15:47N 29°21' W 094°48'2 6.4
2018-Feb-19 15:27N 29°20' W 094°47'1 0.6
2018-Feb-19 14:08N 29°19' W 094°47'0 0.0
2018-Feb-19 13:59N 29°19' W 094°47'0 0.4
2018-Feb-19 13:17N 29°19' W 094°47'0 0.0
2018-Feb-19 09:44N 29°19' W 094°47'0 0.0
2018-Feb-19 09:29N 29°19' W 094°47'0 0.0
2018-Feb-19 08:56N 29°19' W 094°47'0 0.0
2018-Feb-19 07:41N 29°19' W 094°47'0 0.0
2018-Feb-19 07:29N 29°19' W 094°47'0 0.0
2018-Feb-19 06:53N 29°19' W 094°47'0 0.0
2018-Feb-19 05:35N 29°19' W 094°47'0 0.0
2018-Feb-19 05:20N 29°19' W 094°47'0 0.0
2018-Feb-19 04:56N 29°19' W 094°47'1 0.1
2018-Feb-18 01:46N 29°19' W 094°49'1 2.3
2018-Feb-18 01:17N 29°19' W 094°47'1 1.4
2018-Feb-18 00:55N 29°19' W 094°47'3 1.9
2018-Feb-17 23:33N 29°22' W 094°48'5 0.2
2018-Feb-17 01:40N 29°23' W 094°53'0 0.1
2018-Feb-17 01:25N 29°23' W 094°53'0 0.0
2018-Feb-17 00:50N 29°23' W 094°53'0 0.3
2018-Feb-17 00:28N 29°23' W 094°53'0 0.4
2018-Feb-16 23:58N 29°22' W 094°53'6 4.7
2018-Feb-16 22:37N 29°20' W 094°47'1 1.3
2018-Feb-16 21:48N 29°19' W 094°47'0 0.0
2018-Feb-16 08:13N 29°19' W 094°47'0 0.0
2018-Feb-16 00:59N 29°19' W 094°47'1 1.9
2018-Feb-16 00:19N 29°19' W 094°48'1 4.1
2018-Feb-15 23:59N 29°19' W 094°47'0 0.0
2018-Feb-15 05:27N 29°19' W 094°47'0 0.0
2018-Feb-15 05:00N 29°19' W 094°47'0 0.1
2018-Feb-15 00:10N 29°19' W 094°47'1 5.5
2018-Feb-15 00:00N 29°19' W 094°48'0 0.0
2018-Feb-14 23:27N 29°19' W 094°48'1 1.7
2018-Feb-14 23:00N 29°19' W 094°47'0 0.2
2018-Feb-14 22:27N 29°19' W 094°47'0 0.2
2018-Feb-14 22:00N 29°19' W 094°47'0 0.1
2018-Feb-14 17:19N 29°19' W 094°47'0 0.1
2018-Feb-14 16:07N 29°19' W 094°47'  
Track history (hours):
 
Tides and Currents Weather Stations Pressure Air Temp Water Temp Dewpoint Dewpoint Depression Visibility Wind Speed Wind Dir Waves Ship Positions

JeSS Newton

Owner: G & H Towing Company, Galveston, TX. More information available from US FCC via Universal Licensing System and Coast Guard Vessel Documentation Center.

Last reported at 2018-Feb-20 07:17 UTC. Time now 2018-Feb-20 08:11 UTC.
Position N 29°19' W 094°47'.

Length 30 m; draft 5 m.

Type: Tug. MMSI: 366792940.

Date/timePositionNaut miles runAvg speedWind from/ knotsBaromVisibWave heightAir tempDewpointWater temp
2018-Feb-20 07:17N 29°19' W 094°47'0 0.0
2018-Feb-20 06:59N 29°19' W 094°47'1 0.1
2018-Feb-19 17:56N 29°20' W 094°47'4 8.6
2018-Feb-19 17:30N 29°22' W 094°50'3 6.1
2018-Feb-19 17:00N 29°22' W 094°53'2 2.4
2018-Feb-19 16:10N 29°22' W 094°51'3 7.1
2018-Feb-19 15:47N 29°21' W 094°48'2 6.4
2018-Feb-19 15:27N 29°20' W 094°47'1 0.6
2018-Feb-19 14:08N 29°19' W 094°47'0 0.0
2018-Feb-19 13:59N 29°19' W 094°47'0 0.4
2018-Feb-19 13:17N 29°19' W 094°47'0 0.0
2018-Feb-19 09:44N 29°19' W 094°47'0 0.0
2018-Feb-19 09:29N 29°19' W 094°47'0 0.0
2018-Feb-19 08:56N 29°19' W 094°47'0 0.0
2018-Feb-19 07:41N 29°19' W 094°47'0 0.0
2018-Feb-19 07:29N 29°19' W 094°47'0 0.0
2018-Feb-19 06:53N 29°19' W 094°47'0 0.0
2018-Feb-19 05:35N 29°19' W 094°47'0 0.0
2018-Feb-19 05:20N 29°19' W 094°47'0 0.0
2018-Feb-19 04:56N 29°19' W 094°47'1 0.1
2018-Feb-18 01:46N 29°19' W 094°49'1 2.3
2018-Feb-18 01:17N 29°19' W 094°47'1 1.4
2018-Feb-18 00:55N 29°19' W 094°47'3 1.9
2018-Feb-17 23:33N 29°22' W 094°48'5 0.2
2018-Feb-17 01:40N 29°23' W 094°53'0 0.1
2018-Feb-17 01:25N 29°23' W 094°53'0 0.0
2018-Feb-17 00:50N 29°23' W 094°53'0 0.3
2018-Feb-17 00:28N 29°23' W 094°53'0 0.4
2018-Feb-16 23:58N 29°22' W 094°53'6 4.7
2018-Feb-16 22:37N 29°20' W 094°47'1 1.3
2018-Feb-16 21:48N 29°19' W 094°47'0 0.0
2018-Feb-16 08:13N 29°19' W 094°47'0 0.0
2018-Feb-16 00:59N 29°19' W 094°47'1 1.9
2018-Feb-16 00:19N 29°19' W 094°48'1 4.1
2018-Feb-15 23:59N 29°19' W 094°47'0 0.0
2018-Feb-15 05:27N 29°19' W 094°47'0 0.0
2018-Feb-15 05:00N 29°19' W 094°47'0 0.1
2018-Feb-15 00:10N 29°19' W 094°47'1 5.5
2018-Feb-15 00:00N 29°19' W 094°48'0 0.0
2018-Feb-14 23:27N 29°19' W 094°48'1 1.7
2018-Feb-14 23:00N 29°19' W 094°47'0 0.2
2018-Feb-14 22:27N 29°19' W 094°47'0 0.2
2018-Feb-14 22:00N 29°19' W 094°47'0 0.1
2018-Feb-14 17:19N 29°19' W 094°47'0 0.1
2018-Feb-14 16:07N 29°19' W 094°47'  

Dump ship's entire track history